Time;durP1;ratioP1;P1;durP2;ratioP2;P2;SDS_P1;SDS_P2;PMS_P1;PMS_P2;Temp;Humidity;BMP_temperature;BMP_pressure;BME280_temperature;BME280_humidity;BME280_pressure;Samples;Min_cycle;Max_cycle;Signal;HPM_P1;HPM_P2
2021/12/07 00:01:27;;;;;;;3.72;1.88;;;7.90;1.00;;;;;;5094974;28;20032;-74
2021/12/07 00:03:54;;;;;;;7.97;1.90;;;8.00;1.00;;;;;;5094177;28;20044;-74
2021/12/07 00:06:21;;;;;;;5.97;1.70;;;8.10;1.00;;;;;;5094107;28;20101;-74
2021/12/07 00:08:49;;;;;;;7.90;1.80;;;8.10;1.00;;;;;;5095341;28;20115;-74
2021/12/07 00:11:15;;;;;;;7.78;1.50;;;8.10;1.00;;;;;;5094583;28;20487;-74
2021/12/07 00:13:42;;;;;;;5.93;1.55;;;8.30;1.00;;;;;;5094547;28;20039;-74
2021/12/07 00:16:10;;;;;;;7.20;1.65;;;8.20;1.00;;;;;;5095043;28;20122;-73
2021/12/07 00:18:37;;;;;;;5.55;1.98;;;8.20;1.00;;;;;;5094421;28;20451;-73
2021/12/07 00:21:05;;;;;;;8.95;2.08;;;8.10;1.00;;;;;;5094755;28;20122;-74
2021/12/07 00:23:32;;;;;;;7.38;1.55;;;8.20;1.00;;;;;;5094737;28;20514;-74
2021/12/07 00:25:58;;;;;;;6.18;1.77;;;8.30;1.00;;;;;;5094840;28;20548;-74
2021/12/07 00:28:24;;;;;;;7.78;1.85;;;8.20;1.00;;;;;;5094762;28;20040;-74
2021/12/07 00:30:51;;;;;;;8.35;1.73;;;8.30;1.00;;;;;;5094559;28;20119;-74
2021/12/07 00:35:50;;;;;;;5.70;1.33;;;8.50;1.00;;;;;;5094671;28;20051;-74
2021/12/07 00:38:23;;;;;;;6.63;1.98;;;8.40;1.00;;;;;;5094761;28;20371;-74
2021/12/07 00:40:50;;;;;;;5.32;1.67;;;8.30;1.00;;;;;;5094476;28;20043;-74
2021/12/07 00:43:16;;;;;;;9.07;1.85;;;8.20;1.00;;;;;;5094619;28;20032;-74
2021/12/07 00:45:45;;;;;;;13.90;2.05;;;8.20;1.00;;;;;;5094570;28;20044;-74
2021/12/07 00:48:13;;;;;;;9.45;1.90;;;8.20;1.00;;;;;;5096068;28;20035;-74
2021/12/07 00:50:41;;;;;;;9.07;2.05;;;8.30;1.00;;;;;;5098455;28;20066;-74
2021/12/07 00:53:08;;;;;;;7.15;1.85;;;8.20;1.00;;;;;;5098229;28;20036;-74
2021/12/07 00:55:43;;;;;;;5.32;1.88;;;8.10;1.00;;;;;;5098165;28;20054;-74
2021/12/07 00:58:18;;;;;;;6.63;1.65;;;8.00;3.50;;;;;;5098603;28;20048;-74
2021/12/07 01:00:46;;;;;;;9.30;2.30;;;7.70;12.60;;;;;;5098302;28;20048;-73
2021/12/07 01:03:13;;;;;;;8.50;1.70;;;7.80;5.50;;;;;;5098270;28;20040;-74
2021/12/07 01:05:46;;;;;;;7.95;2.30;;;7.80;3.80;;;;;;5097526;28;20048;-74
2021/12/07 01:08:23;;;;;;;8.82;2.42;;;7.90;1.00;;;;;;5097777;28;20154;-74
2021/12/07 01:24:41;;;;;;;17.27;2.97;;;8.00;1.00;;;;;;5097053;28;20108;-73
2021/12/07 01:27:12;;;;;;;14.15;2.92;;;7.90;1.00;;;;;;5097154;28;20364;-74
2021/12/07 01:29:40;;;;;;;16.35;2.58;;;7.90;1.00;;;;;;5097807;28;20112;-73
2021/12/07 01:37:34;;;;;;;14.90;2.40;;;7.80;1.00;;;;;;5097171;28;20572;-74
2021/12/07 01:40:28;;;;;;;12.85;2.40;;;7.80;1.00;;;;;;5096958;28;20036;-74
2021/12/07 01:43:32;;;;;;;18.58;3.67;;;7.80;1.00;;;;;;5096945;28;20471;-74
2021/12/07 01:59:35;;;;;;;8.48;1.75;;;7.70;6.40;;;;;;5096084;28;20054;-74
2021/12/07 02:02:07;;;;;;;10.20;1.95;;;7.50;11.30;;;;;;5096432;28;20040;-74
2021/12/07 02:04:33;;;;;;;10.48;2.20;;;7.40;5.30;;;;;;5096750;28;20490;-73
2021/12/07 02:06:59;;;;;;;8.38;2.17;;;7.40;6.00;;;;;;5096819;28;20131;-74
2021/12/07 02:09:25;;;;;;;13.00;3.05;;;7.40;5.20;;;;;;5096998;28;20070;-74
2021/12/07 02:11:58;;;;;;;8.07;2.28;;;7.60;1.00;;;;;;5096967;28;20356;-74
2021/12/07 02:14:24;;;;;;;12.07;2.30;;;7.70;1.00;;;;;;5096565;28;20036;-74
2021/12/07 02:16:56;;;;;;;15.35;2.88;;;7.70;1.00;;;;;;5096837;28;20036;-74
2021/12/07 02:19:23;;;;;;;13.88;2.95;;;7.70;1.00;;;;;;5097424;28;20097;-74
2021/12/07 02:21:51;;;;;;;13.23;3.03;;;7.80;1.00;;;;;;5096609;28;20059;-74
2021/12/07 02:24:18;;;;;;;14.70;3.45;;;7.70;1.50;;;;;;5096759;28;20040;-74
2021/12/07 02:26:47;;;;;;;14.15;3.28;;;7.70;1.00;;;;;;5096694;28;20039;-73
2021/12/07 02:29:13;;;;;;;16.30;3.25;;;7.60;1.00;;;;;;5096287;28;20042;-74
2021/12/07 02:31:39;;;;;;;14.18;2.47;;;7.70;1.00;;;;;;5096722;28;20035;-74
2021/12/07 02:34:06;;;;;;;12.73;3.10;;;7.70;1.00;;;;;;5096357;28;20073;-74
2021/12/07 02:36:32;;;;;;;17.10;2.92;;;7.70;1.00;;;;;;5096489;28;20040;-74
2021/12/07 02:38:58;;;;;;;19.02;3.00;;;7.60;1.00;;;;;;5096481;28;20051;-74
2021/12/07 02:41:24;;;;;;;13.32;3.05;;;7.60;4.90;;;;;;5096130;28;20036;-74
2021/12/07 02:43:50;;;;;;;16.95;3.28;;;7.50;1.60;;;;;;5096308;28;20039;-74
2021/12/07 02:46:16;;;;;;;16.80;2.70;;;7.50;4.90;;;;;;5096190;28;20040;-74
2021/12/07 02:48:43;;;;;;;16.60;2.97;;;7.40;4.00;;;;;;5096241;28;20040;-73
2021/12/07 02:51:09;;;;;;;19.50;3.25;;;7.40;4.80;;;;;;5096154;28;20036;-74
2021/12/07 02:53:36;;;;;;;16.77;2.65;;;7.60;4.50;;;;;;5096142;28;20046;-73
2021/12/07 02:56:04;;;;;;;16.58;3.30;;;7.70;1.00;;;;;;5095674;28;20085;-73
2021/12/07 02:58:30;;;;;;;19.48;3.28;;;7.60;3.60;;;;;;5096059;28;20071;-74
2021/12/07 03:01:06;;;;;;;18.90;3.35;;;7.60;2.10;;;;;;5095896;28;20120;-74
2021/12/07 03:03:36;;;;;;;12.88;3.10;;;7.50;6.70;;;;;;5095918;28;20048;-74
2021/12/07 03:06:18;;;;;;;19.00;3.50;;;7.40;10.80;;;;;;5095309;28;20056;-74
2021/12/07 03:27:59;;;;;;;14.32;2.72;;;7.60;1.00;;;;;;5094686;28;20070;-74
2021/12/07 03:30:25;;;;;;;21.30;4.00;;;7.50;1.00;;;;;;5095530;28;20068;-74
2021/12/07 03:32:51;;;;;;;18.90;3.50;;;7.40;1.00;;;;;;5094652;28;20047;-74
2021/12/07 03:35:18;;;;;;;17.65;3.05;;;7.60;1.00;;;;;;5094739;28;20032;-74
2021/12/07 03:37:44;;;;;;;16.77;3.15;;;7.50;1.00;;;;;;5094991;28;20062;-73
2021/12/07 03:40:11;;;;;;;17.38;2.92;;;7.60;1.00;;;;;;5095054;28;20069;-74
2021/12/07 03:42:38;;;;;;;19.17;3.08;;;7.50;1.00;;;;;;5094912;28;20043;-73
2021/12/07 03:45:08;;;;;;;15.15;3.25;;;7.50;1.00;;;;;;5094837;28;20060;-73
2021/12/07 03:47:34;;;;;;;13.27;2.50;;;7.60;1.00;;;;;;5094849;28;20518;-73
2021/12/07 03:50:00;;;;;;;17.95;4.18;;;7.60;1.00;;;;;;5095022;28;20043;-73
2021/12/07 03:52:26;;;;;;;14.18;2.65;;;7.50;1.00;;;;;;5094805;28;20040;-73
2021/12/07 03:54:52;;;;;;;14.88;2.47;;;7.50;1.00;;;;;;5094562;28;20065;-74
2021/12/07 03:57:17;;;;;;;15.18;2.88;;;7.50;1.00;;;;;;5094767;28;20048;-73
2021/12/07 03:59:43;;;;;;;19.67;2.67;;;7.50;1.00;;;;;;5095028;28;20043;-73
2021/12/07 04:02:09;;;;;;;20.25;3.35;;;7.40;1.00;;;;;;5094494;28;20040;-73
2021/12/07 04:04:36;;;;;;;22.20;3.15;;;7.40;1.00;;;;;;5094483;28;20042;-74
2021/12/07 04:07:02;;;;;;;13.98;2.53;;;7.50;1.00;;;;;;5095078;28;20044;-74
2021/12/07 04:09:29;;;;;;;15.55;3.28;;;7.50;1.00;;;;;;5095231;28;20036;-73
2021/12/07 04:11:55;;;;;;;22.20;3.72;;;7.50;1.00;;;;;;5094916;28;20032;-74
2021/12/07 04:14:20;;;;;;;15.18;2.67;;;7.30;1.00;;;;;;5094627;28;20067;-73
2021/12/07 04:16:46;;;;;;;16.20;3.00;;;7.20;1.00;;;;;;5094630;28;20067;-74
2021/12/07 04:19:12;;;;;;;15.38;2.97;;;7.30;1.00;;;;;;5095165;28;20048;-73
2021/12/07 04:21:38;;;;;;;14.70;3.17;;;7.30;1.00;;;;;;5095969;28;20032;-73
2021/12/07 04:24:04;;;;;;;16.85;3.05;;;7.40;1.00;;;;;;5099215;28;20036;-73
2021/12/07 04:26:31;;;;;;;21.38;3.03;;;7.40;1.00;;;;;;5098896;28;20044;-73
2021/12/07 04:28:57;;;;;;;15.35;3.15;;;7.40;1.00;;;;;;5098642;28;20051;-73
2021/12/07 04:31:23;;;;;;;16.17;2.97;;;7.40;1.00;;;;;;5098825;28;20035;-74
2021/12/07 04:33:49;;;;;;;16.80;2.25;;;7.40;1.00;;;;;;5098417;28;20390;-74
2021/12/07 04:36:15;;;;;;;18.63;3.00;;;7.30;1.00;;;;;;5098517;28;20036;-74
2021/12/07 04:38:42;;;;;;;18.55;3.38;;;7.40;1.00;;;;;;5099248;28;20093;-74
2021/12/07 04:41:09;;;;;;;21.05;3.38;;;7.30;1.00;;;;;;5098684;28;20479;-74
2021/12/07 04:43:37;;;;;;;13.38;2.55;;;7.30;1.00;;;;;;5099005;28;20043;-74
2021/12/07 04:49:21;;;;;;;17.20;3.28;;;7.30;1.00;;;;;;5104840;28;20034;-74
2021/12/07 04:59:29;;;;;;;15.05;3.40;;;7.10;1.00;;;;;;5118534;28;20456;-73
2021/12/07 05:01:55;;;;;;;16.58;2.85;;;7.10;1.00;;;;;;5117670;28;20036;-74
2021/12/07 05:04:26;;;;;;;13.23;2.80;;;7.00;1.00;;;;;;5117933;28;20123;-74
2021/12/07 05:06:57;;;;;;;17.08;3.38;;;7.10;1.00;;;;;;5117944;28;20054;-74
2021/12/07 05:14:31;;;;;;;11.05;1.73;;;7.00;1.00;;;;;;5117778;28;20428;-73
2021/12/07 05:38:53;;;;;;;12.63;2.70;;;7.10;1.00;;;;;;5110218;28;20034;-74
2021/12/07 05:41:19;;;;;;;12.98;2.22;;;6.90;1.00;;;;;;5099094;28;20398;-73
2021/12/07 05:43:46;;;;;;;11.98;2.40;;;6.80;1.00;;;;;;5097783;28;20032;-74
2021/12/07 05:46:12;;;;;;;16.27;2.28;;;6.90;1.00;;;;;;5097131;28;20507;-73
2021/12/07 05:48:38;;;;;;;10.95;2.58;;;6.80;1.00;;;;;;5097008;28;20077;-73
2021/12/07 05:51:04;;;;;;;15.27;2.85;;;6.70;1.00;;;;;;5097102;28;20028;-73
2021/12/07 05:53:29;;;;;;;11.40;2.65;;;6.80;1.00;;;;;;5097041;28;20036;-74
2021/12/07 05:55:55;;;;;;;14.55;2.90;;;6.70;1.00;;;;;;5097114;28;20044;-74
2021/12/07 05:58:21;;;;;;;11.45;3.00;;;6.70;1.00;;;;;;5097127;28;20043;-74
2021/12/07 06:00:48;;;;;;;15.63;2.60;;;6.70;1.00;;;;;;5097120;28;20085;-74
2021/12/07 06:03:15;;;;;;;17.08;2.88;;;6.70;1.00;;;;;;5096681;28;20035;-74
2021/12/07 06:05:42;;;;;;;15.82;3.72;;;6.80;1.10;;;;;;5097094;28;20110;-73
2021/12/07 06:08:08;;;;;;;12.10;3.28;;;6.80;1.00;;;;;;5097330;28;20075;-73
2021/12/07 06:10:35;;;;;;;16.73;3.25;;;6.80;1.00;;;;;;5097015;28;20039;-74
2021/12/07 06:13:01;;;;;;;14.30;2.95;;;6.70;1.30;;;;;;5096984;28;20081;-73
2021/12/07 06:15:31;;;;;;;16.38;3.28;;;6.80;1.00;;;;;;5096928;28;20081;-73
2021/12/07 06:17:57;;;;;;;14.30;2.78;;;6.90;1.00;;;;;;5097058;28;20074;-74
2021/12/07 06:20:23;;;;;;;15.88;3.15;;;6.90;1.00;;;;;;5096928;28;20042;-73
2021/12/07 06:22:49;;;;;;;15.38;3.53;;;6.80;1.00;;;;;;5096774;28;20043;-73
2021/12/07 06:25:15;;;;;;;16.33;2.92;;;6.70;2.20;;;;;;5096649;28;20402;-73
2021/12/07 06:27:42;;;;;;;15.77;3.33;;;6.60;7.00;;;;;;5096394;28;20040;-73
2021/12/07 06:30:09;;;;;;;16.42;3.08;;;6.50;1.60;;;;;;5096646;28;20083;-73
2021/12/07 06:32:35;;;;;;;13.30;2.72;;;6.40;1.70;;;;;;5096175;28;20043;-73
2021/12/07 06:35:02;;;;;;;12.98;2.47;;;6.60;1.00;;;;;;5096227;28;20044;-73
2021/12/07 06:37:28;;;;;;;17.40;2.40;;;6.50;1.00;;;;;;5096183;28;20038;-74
2021/12/07 06:39:54;;;;;;;17.38;3.80;;;6.40;7.50;;;;;;5096522;28;20043;-73
2021/12/07 06:42:19;;;;;;;22.65;7.68;;;6.20;13.10;;;;;;5096103;28;20032;-73
2021/12/07 06:44:45;;;;;;;12.55;3.97;;;6.10;13.20;;;;;;5095154;28;20032;-74
2021/12/07 06:47:11;;;;;;;13.93;3.42;;;6.20;1.00;;;;;;5095802;28;20406;-73
2021/12/07 06:49:37;;;;;;;17.15;3.35;;;6.10;1.00;;;;;;5096236;28;20040;-73
2021/12/07 06:52:04;;;;;;;13.75;4.30;;;6.00;6.20;;;;;;5096242;28;20039;-73
2021/12/07 06:54:30;;;;;;;18.20;5.05;;;5.80;22.90;;;;;;5096979;28;20070;-73
2021/12/07 06:56:56;;;;;;;14.18;3.75;;;5.60;29.50;;;;;;5096329;28;20039;-73
2021/12/07 06:59:22;;;;;;;15.27;4.90;;;5.40;34.20;;;;;;5096385;28;20044;-73
2021/12/07 07:01:48;;;;;;;19.13;6.93;;;5.40;50.80;;;;;;5095966;28;20097;-73
2021/12/07 07:04:14;;;;;;;16.73;7.97;;;5.30;54.10;;;;;;5095466;28;20043;-73
2021/12/07 07:06:42;;;;;;;16.85;5.53;;;5.20;59.00;;;;;;5095698;28;20045;-73
2021/12/07 07:09:08;;;;;;;18.67;5.60;;;5.00;70.70;;;;;;5095789;28;20180;-73
2021/12/07 07:11:34;;;;;;;22.33;7.80;;;4.90;66.40;;;;;;5095824;28;20486;-73
2021/12/07 07:14:01;;;;;;;22.88;6.05;;;4.90;76.10;;;;;;5095492;28;20040;-73
2021/12/07 07:16:28;;;;;;;19.40;4.38;;;4.90;94.60;;;;;;5095719;28;20185;-73
2021/12/07 07:18:55;;;;;;;22.85;6.50;;;4.70;95.10;;;;;;5095344;28;20491;-73
2021/12/07 07:21:22;;;;;;;23.63;6.82;;;4.70;99.90;;;;;;5095542;28;20036;-74
2021/12/07 07:23:48;;;;;;;25.52;7.50;;;4.70;99.90;;;;;;5095527;28;20118;-73
2021/12/07 07:26:14;;;;;;;21.05;5.15;;;4.70;99.90;;;;;;5095606;28;20051;-73
2021/12/07 07:28:40;;;;;;;21.98;5.68;;;4.80;99.90;;;;;;5095714;28;20042;-73
2021/12/07 07:31:08;;;;;;;15.10;4.68;;;4.80;91.70;;;;;;5095585;28;20123;-74
2021/12/07 07:33:35;;;;;;;19.10;4.55;;;4.80;88.10;;;;;;5095240;28;20032;-73
2021/12/07 07:36:00;;;;;;;15.90;4.70;;;4.80;79.20;;;;;;5095272;28;20044;-74
2021/12/07 07:38:26;;;;;;;22.08;5.13;;;4.90;92.00;;;;;;5095962;28;20077;-73
2021/12/07 07:40:52;;;;;;;35.50;16.73;;;4.90;70.50;;;;;;5099119;28;20047;-74
2021/12/07 07:43:19;;;;;;;26.52;9.52;;;4.70;79.70;;;;;;5100728;28;20483;-73
2021/12/07 07:45:47;;;;;;;20.95;8.63;;;4.60;93.00;;;;;;5093254;28;20059;-73
2021/12/07 07:48:16;;;;;;;15.10;5.90;;;4.50;99.00;;;;;;5093961;28;20117;-73
2021/12/07 07:50:42;;;;;;;19.17;5.78;;;4.60;99.90;;;;;;5095014;28;20040;-73
2021/12/07 07:53:07;;;;;;;19.88;6.45;;;4.50;99.90;;;;;;5094823;28;20039;-73
2021/12/07 07:55:35;;;;;;;13.85;5.30;;;4.50;99.90;;;;;;5094747;28;20040;-73
2021/12/07 07:58:03;;;;;;;22.42;6.28;;;4.50;99.90;;;;;;5094604;28;20028;-74
2021/12/07 08:00:29;;;;;;;26.90;5.40;;;4.60;99.90;;;;;;5096387;28;20039;-73
2021/12/07 08:02:55;;;;;;;21.02;4.53;;;4.60;99.90;;;;;;5104384;28;20066;-73
2021/12/07 08:05:21;;;;;;;18.27;3.88;;;4.60;94.40;;;;;;5104885;28;20043;-74
2021/12/07 08:07:49;;;;;;;13.27;4.05;;;4.50;94.70;;;;;;5092574;28;20052;-73
2021/12/07 08:10:21;;;;;;;13.40;3.88;;;4.50;99.50;;;;;;5092702;28;20398;-73
2021/12/07 08:12:48;;;;;;;14.80;3.78;;;4.50;99.90;;;;;;5095745;28;20070;-73
2021/12/07 08:15:15;;;;;;;17.73;4.65;;;4.50;98.80;;;;;;5112495;28;20595;-73
2021/12/07 08:17:41;;;;;;;21.20;4.90;;;4.50;99.90;;;;;;5112455;28;20072;-74
2021/12/07 08:20:08;;;;;;;16.83;4.95;;;4.40;99.90;;;;;;5110209;28;20031;-74
2021/12/07 08:22:34;;;;;;;15.35;4.55;;;4.40;99.90;;;;;;5113441;28;20085;-74
2021/12/07 08:25:00;;;;;;;18.85;4.13;;;4.40;99.90;;;;;;5114593;28;20044;-74
2021/12/07 08:27:26;;;;;;;15.25;3.40;;;4.40;99.90;;;;;;5114220;28;20410;-74
2021/12/07 08:29:52;;;;;;;18.70;3.38;;;4.40;99.90;;;;;;5105015;28;20118;-74
2021/12/07 08:32:18;;;;;;;17.90;4.30;;;4.40;99.90;;;;;;5112731;28;20154;-73
2021/12/07 08:34:44;;;;;;;20.02;4.90;;;4.30;99.90;;;;;;5112000;28;20031;-74
2021/12/07 08:37:10;;;;;;;16.58;4.78;;;4.40;99.90;;;;;;5113451;28;20134;-71
2021/12/07 08:39:37;;;;;;;18.67;5.63;;;4.40;95.30;;;;;;5113707;28;20074;-71
2021/12/07 08:42:04;;;;;;;21.52;6.28;;;4.40;97.70;;;;;;5113210;28;20036;-71
2021/12/07 08:44:31;;;;;;;23.50;7.07;;;4.40;99.90;;;;;;5113583;28;20508;-71
2021/12/07 08:46:58;;;;;;;25.35;6.38;;;4.40;99.90;;;;;;5111744;28;20032;-71
2021/12/07 08:49:24;;;;;;;19.00;6.05;;;4.40;99.90;;;;;;5113024;28;20035;-71
2021/12/07 08:51:51;;;;;;;17.85;5.95;;;4.50;99.90;;;;;;5113116;28;20043;-70
2021/12/07 08:54:29;;;;;;;14.48;6.00;;;4.40;99.90;;;;;;5112905;28;20364;-74
2021/12/07 08:59:44;;;;;;;22.35;6.43;;;4.70;99.90;;;;;;5101488;28;20039;-72
2021/12/07 09:02:17;;;;;;;22.25;6.85;;;4.80;99.20;;;;;;5092391;28;20477;-70
2021/12/07 09:04:44;;;;;;;14.52;4.65;;;4.80;93.30;;;;;;5089890;28;20048;-70
2021/12/07 09:07:11;;;;;;;17.40;4.32;;;4.80;91.70;;;;;;5091369;28;20059;-69
2021/12/07 09:09:37;;;;;;;15.75;4.32;;;4.80;99.70;;;;;;5090462;28;20038;-70
2021/12/07 09:12:05;;;;;;;14.20;3.83;;;4.90;96.10;;;;;;5113032;28;20062;-70
2021/12/07 09:14:34;;;;;;;16.05;3.60;;;4.90;98.30;;;;;;5116635;28;20103;-71
2021/12/07 09:17:02;;;;;;;16.95;4.18;;;4.90;99.90;;;;;;5116245;28;20050;-73
2021/12/07 09:19:29;;;;;;;18.00;4.88;;;4.90;99.70;;;;;;5117117;28;20040;-72
2021/12/07 09:21:55;;;;;;;20.98;5.03;;;5.00;90.10;;;;;;5116696;28;20043;-72
2021/12/07 09:24:21;;;;;;;16.52;3.90;;;5.10;96.50;;;;;;5116570;28;20042;-71
2021/12/07 09:26:48;;;;;;;17.13;3.17;;;5.20;96.30;;;;;;5116210;28;20073;-71
2021/12/07 09:29:14;;;;;;;16.17;3.50;;;5.20;74.90;;;;;;5116563;28;20046;-72
2021/12/07 09:31:40;;;;;;;17.38;4.00;;;5.30;57.20;;;;;;5115761;28;20031;-72
2021/12/07 09:34:06;;;;;;;24.35;3.70;;;5.30;64.10;;;;;;5114760;28;20040;-70
2021/12/07 09:36:34;;;;;;;22.85;3.35;;;5.40;67.60;;;;;;5114510;28;20054;-72
2021/12/07 09:39:00;;;;;;;18.40;3.35;;;5.50;82.40;;;;;;5116778;28;20092;-73
2021/12/07 09:41:26;;;;;;;18.95;3.42;;;5.60;73.10;;;;;;5115969;28;20078;-74
2021/12/07 09:43:52;;;;;;;22.58;4.15;;;5.80;85.40;;;;;;5114741;28;20092;-72
2021/12/07 09:46:19;;;;;;;26.70;4.10;;;5.90;69.10;;;;;;5114230;28;20048;-70
2021/12/07 09:48:46;;;;;;;16.20;3.35;;;6.00;51.70;;;;;;5115345;28;20525;-71
2021/12/07 09:51:16;;;;;;;12.25;2.70;;;6.20;42.90;;;;;;5115784;28;20054;-73
2021/12/07 09:53:47;;;;;;;14.85;2.90;;;6.10;41.10;;;;;;5114798;27;20046;-72
2021/12/07 09:56:14;;;;;;;15.50;2.75;;;6.10;42.90;;;;;;5114153;28;20062;-71
2021/12/07 09:58:43;;;;;;;16.48;2.40;;;6.10;49.10;;;;;;5114700;28;20031;-71
2021/12/07 10:01:10;;;;;;;18.13;2.70;;;6.30;44.70;;;;;;5116240;28;20490;-71
2021/12/07 10:03:36;;;;;;;19.92;2.80;;;6.50;36.30;;;;;;5114420;28;20039;-74
2021/12/07 10:06:03;;;;;;;10.95;2.15;;;6.70;28.10;;;;;;5114551;28;20048;-73
2021/12/07 10:08:30;;;;;;;13.48;2.40;;;7.00;15.60;;;;;;5111160;28;20996;-73
2021/12/07 10:10:59;;;;;;;13.48;2.72;;;7.20;2.90;;;;;;5104409;28;20135;-73
2021/12/07 10:13:28;;;;;;;12.77;2.92;;;7.70;1.00;;;;;;5113587;28;20027;-73
2021/12/07 10:15:55;;;;;;;13.02;3.47;;;7.90;1.00;;;;;;5115671;28;20043;-71
2021/12/07 10:18:24;;;;;;;12.55;3.45;;;8.10;1.00;;;;;;5115004;28;20046;-70
2021/12/07 10:20:54;;;;;;;13.70;2.95;;;8.10;1.00;;;;;;5116025;28;20047;-71
2021/12/07 10:23:20;;;;;;;10.55;2.08;;;8.10;1.00;;;;;;5115479;28;20045;-71
2021/12/07 10:25:52;;;;;;;9.38;2.30;;;8.20;1.00;;;;;;5116044;28;20044;-72
2021/12/07 10:28:50;;;;;;;14.63;2.28;;;8.20;1.00;;;;;;5114789;28;20078;-71
2021/12/07 10:31:15;;;;;;;9.45;2.00;;;8.10;1.00;;;;;;5115931;28;20104;-70
2021/12/07 10:33:46;;;;;;;9.75;2.05;;;8.00;1.00;;;;;;5101918;28;20040;-72
2021/12/07 10:36:20;;;;;;;;;;;8.10;1.00;;;;;;5092918;28;20101;-71
2021/12/07 10:38:54;;;;;;;176.48;106.70;;;8.10;1.00;;;;;;5109879;28;20015;-72
2021/12/07 10:41:23;;;;;;;16.90;8.18;;;8.10;1.00;;;;;;5112682;28;20122;-74
2021/12/07 10:43:54;;;;;;;13.55;3.85;;;8.20;1.00;;;;;;5113621;28;20112;-72
2021/12/07 10:46:35;;;;;;;15.15;3.00;;;8.50;1.00;;;;;;5109398;28;20055;-71
2021/12/07 10:49:21;;;;;;;13.52;2.80;;;8.50;1.00;;;;;;5111852;28;20114;-72
2021/12/07 10:52:11;;;;;;;12.13;3.40;;;8.60;1.00;;;;;;5112566;28;20051;-72
2021/12/07 10:54:49;;;;;;;10.25;2.53;;;8.50;1.00;;;;;;5113411;28;20032;-72
2021/12/07 10:57:21;;;;;;;11.05;2.63;;;8.60;1.00;;;;;;5112590;28;20036;-72
2021/12/07 10:59:58;;;;;;;10.88;2.90;;;8.60;1.00;;;;;;5107617;28;20114;-72
2021/12/07 11:02:27;;;;;;;10.73;4.00;;;8.70;1.00;;;;;;5098013;28;20498;-71
2021/12/07 11:04:53;;;;;;;11.43;2.70;;;8.70;1.00;;;;;;5115000;28;20081;-71
2021/12/07 11:07:25;;;;;;;12.55;2.53;;;8.70;1.00;;;;;;5114091;28;20124;-71
2021/12/07 11:12:41;;;;;;;9.82;2.42;;;8.70;1.00;;;;;;5114403;28;20020;-72
2021/12/07 11:15:14;;;;;;;10.23;2.22;;;8.50;1.00;;;;;;5114248;28;20043;-72
2021/12/07 11:17:41;;;;;;;15.60;2.65;;;8.50;1.00;;;;;;5113675;28;20035;-72
2021/12/07 11:20:07;;;;;;;10.60;4.00;;;8.50;1.00;;;;;;5112089;28;20063;-71
2021/12/07 11:22:38;;;;;;;11.50;3.45;;;8.70;1.00;;;;;;5111239;27;20038;-71
2021/12/07 11:25:05;;;;;;;12.85;3.50;;;8.70;1.00;;;;;;5112915;28;20040;-71
2021/12/07 11:30:19;;;;;;;12.52;5.15;;;8.60;1.00;;;;;;5107793;28;20066;-71
2021/12/07 11:32:55;;;;;;;19.10;6.78;;;8.60;1.00;;;;;;5111831;28;20066;-70
2021/12/07 11:35:22;;;;;;;51.25;36.03;;;8.50;1.00;;;;;;5107008;28;20122;-70
2021/12/07 11:37:49;;;;;;;16.88;6.28;;;8.50;1.00;;;;;;5096062;28;20055;-71
2021/12/07 11:40:21;;;;;;;13.35;4.47;;;8.60;1.00;;;;;;5103136;28;20044;-70
2021/12/07 11:42:47;;;;;;;13.25;4.72;;;8.70;1.00;;;;;;5112291;28;20058;-70
2021/12/07 11:45:21;;;;;;;12.20;4.55;;;8.90;1.00;;;;;;5112311;28;20126;-70
2021/12/07 11:47:53;;;;;;;9.48;4.53;;;9.10;1.00;;;;;;5109393;28;20063;-71
2021/12/07 11:50:57;;;;;;;14.73;4.72;;;9.40;1.00;;;;;;5111079;28;20511;-70
2021/12/07 11:53:25;;;;;;;11.85;4.18;;;9.70;1.00;;;;;;5047879;28;20530;-71
2021/12/07 11:55:57;;;;;;;12.82;3.08;;;10.00;1.00;;;;;;5047867;28;20043;-73
2021/12/07 11:58:23;;;;;;;11.30;3.40;;;10.30;1.00;;;;;;5080305;28;20043;-72
2021/12/07 12:00:55;;;;;;;14.95;5.65;;;10.30;1.00;;;;;;5110753;28;20047;-73
2021/12/07 12:03:23;;;;;;;11.38;3.47;;;10.10;1.00;;;;;;5108503;28;20494;-72
2021/12/07 12:05:51;;;;;;;9.80;3.00;;;10.30;1.00;;;;;;5107300;28;20052;-70
2021/12/07 12:08:20;;;;;;;11.82;3.13;;;10.20;1.00;;;;;;5108437;28;20101;-70
2021/12/07 12:11:21;;;;;;;15.63;2.80;;;10.20;1.00;;;;;;5110524;28;20044;-70
2021/12/07 12:14:14;;;;;;;12.57;2.58;;;10.20;1.00;;;;;;5110698;28;20131;-69
2021/12/07 12:17:11;;;;;;;8.30;2.53;;;9.80;1.00;;;;;;5113668;28;20039;-70
2021/12/07 12:20:05;;;;;;;12.18;2.42;;;9.80;1.00;;;;;;5112557;28;20039;-70
2021/12/07 12:22:37;;;;;;;20.20;16.40;;;9.80;1.00;;;;;;5113185;28;20050;-70
2021/12/07 12:25:10;;;;;;;5.63;1.73;;;9.80;1.00;;;;;;5113192;28;20035;-70
2021/12/07 12:27:37;;;;;;;13.73;8.13;;;9.90;1.00;;;;;;5113140;28;20071;-70
2021/12/07 12:30:28;;;;;;;9.77;2.22;;;9.80;1.00;;;;;;5112592;28;20359;-70
2021/12/07 12:32:57;;;;;;;72.57;54.40;;;9.60;1.00;;;;;;5106114;28;20040;-70
2021/12/07 12:35:48;;;;;;;12.88;2.83;;;9.50;1.00;;;;;;5112973;28;20028;-70
2021/12/07 12:38:25;;;;;;;9.88;2.88;;;9.60;1.00;;;;;;5113294;28;20065;-70
2021/12/07 12:41:11;;;;;;;9.85;3.00;;;9.50;1.00;;;;;;5113566;28;20067;-69
2021/12/07 12:43:54;;;;;;;12.70;2.80;;;9.50;1.00;;;;;;5114124;28;20044;-73
2021/12/07 12:46:27;;;;;;;28.92;14.20;;;9.50;1.00;;;;;;5112678;28;20075;-70
2021/12/07 12:49:02;;;;;;;9.48;2.85;;;9.50;1.00;;;;;;5107195;28;20131;-70
2021/12/07 12:51:43;;;;;;;12.48;3.67;;;9.80;1.00;;;;;;5114315;28;20066;-71
2021/12/07 12:54:09;;;;;;;11.10;2.70;;;9.80;1.00;;;;;;5099419;28;20486;-73
2021/12/07 12:56:37;;;;;;;9.48;3.88;;;9.90;1.00;;;;;;5110924;28;20055;-73
2021/12/07 12:59:10;;;;;;;8.70;2.05;;;10.00;1.00;;;;;;5115022;27;20039;-74
2021/12/07 13:01:43;;;;;;;11.05;3.20;;;9.70;1.00;;;;;;5113236;28;20075;-74
2021/12/07 13:04:28;;;;;;;10.82;3.90;;;9.60;1.00;;;;;;5091950;28;20035;-72
2021/12/07 13:09:40;;;;;;;14.10;2.35;;;9.80;1.00;;;;;;5095181;28;20044;-69
2021/12/07 13:12:05;;;;;;;;;;;9.60;1.00;;;;;;5103382;28;20078;-72
2021/12/07 13:14:34;;;;;;;10.18;2.35;;;9.70;1.00;;;;;;5113948;28;19951;-72
2021/12/07 13:17:07;;;;;;;10.25;2.20;;;9.60;1.00;;;;;;5110166;28;20035;-72
2021/12/07 13:19:59;;;;;;;8.52;2.63;;;9.50;1.00;;;;;;5104173;28;20047;-72
2021/12/07 13:22:51;;;;;;;11.23;3.20;;;9.50;1.00;;;;;;5112901;28;20036;-71
2021/12/07 13:25:46;;;;;;;9.10;2.35;;;9.50;1.00;;;;;;5109370;28;20039;-71
2021/12/07 13:28:22;;;;;;;12.98;3.00;;;9.30;1.00;;;;;;5113827;28;20036;-71
2021/12/07 13:30:51;;;;;;;11.15;2.85;;;9.40;1.00;;;;;;5112896;28;20521;-71
2021/12/07 13:33:23;;;;;;;14.05;4.75;;;9.30;1.00;;;;;;5115085;28;20050;-71
2021/12/07 13:35:50;;;;;;;10.57;2.83;;;9.40;1.00;;;;;;5114521;28;20036;-72
2021/12/07 13:38:25;;;;;;;20.98;9.45;;;9.30;1.00;;;;;;5115176;27;20040;-71
2021/12/07 13:41:12;;;;;;;8.30;2.88;;;9.20;1.00;;;;;;5114757;28;20101;-71
2021/12/07 13:43:40;;;;;;;7.45;3.40;;;9.30;1.00;;;;;;5114255;28;20054;-71
2021/12/07 13:46:21;;;;;;;9.35;3.00;;;9.40;1.00;;;;;;5112064;28;20040;-71
2021/12/07 13:48:50;;;;;;;11.32;2.47;;;9.40;1.00;;;;;;5113047;28;20114;-72
2021/12/07 13:51:18;;;;;;;17.08;6.88;;;9.40;1.00;;;;;;5113593;28;20034;-72
2021/12/07 13:53:45;;;;;;;12.43;2.35;;;9.40;1.00;;;;;;5108434;28;20044;-71
2021/12/07 13:56:12;;;;;;;36.97;17.23;;;9.50;1.00;;;;;;5112203;28;20142;-72
2021/12/07 13:59:06;;;;;;;12.68;5.18;;;9.50;1.00;;;;;;5114091;28;20047;-70
2021/12/07 14:01:34;;;;;;;9.75;2.80;;;9.80;1.00;;;;;;5111736;28;20032;-70
2021/12/07 14:04:02;;;;;;;179.05;104.45;;;9.80;1.00;;;;;;5110915;28;20398;-70
2021/12/07 14:06:28;;;;;;;11.27;5.10;;;9.80;1.00;;;;;;5113609;28;20044;-70
2021/12/07 14:09:03;;;;;;;10.98;2.95;;;9.90;1.00;;;;;;5094338;28;20069;-70
2021/12/07 14:11:29;;;;;;;15.18;3.83;;;9.70;1.00;;;;;;5103172;28;20050;-71
2021/12/07 14:13:55;;;;;;;10.13;3.28;;;9.70;1.00;;;;;;5112722;28;20040;-71
2021/12/07 14:16:25;;;;;;;15.75;9.52;;;9.70;1.00;;;;;;5113015;28;20043;-70
2021/12/07 14:18:51;;;;;;;8.50;2.97;;;9.70;1.00;;;;;;5114137;28;20541;-70
2021/12/07 14:21:17;;;;;;;9.77;2.55;;;9.70;1.00;;;;;;5113922;28;20032;-71
2021/12/07 14:24:03;;;;;;;12.85;2.75;;;9.60;1.00;;;;;;5114122;28;20040;-70
2021/12/07 14:26:30;;;;;;;7.10;2.50;;;9.50;1.00;;;;;;5112436;28;20653;-71
2021/12/07 14:29:02;;;;;;;11.80;2.72;;;9.40;1.00;;;;;;5114104;28;20119;-70
2021/12/07 14:31:37;;;;;;;12.90;4.28;;;9.30;1.00;;;;;;5115858;28;20070;-70
2021/12/07 14:34:24;;;;;;;32.42;25.33;;;9.20;1.00;;;;;;5115240;28;20085;-69
2021/12/07 14:36:56;;;;;;;17.70;7.00;;;9.10;1.00;;;;;;5115275;28;20040;-71
2021/12/07 14:39:25;;;;;;;15.20;5.00;;;9.00;1.00;;;;;;5115591;28;20042;-72
2021/12/07 14:41:59;;;;;;;95.95;67.18;;;8.90;1.00;;;;;;5115761;28;20047;-71
2021/12/07 14:44:28;;;;;;;88.40;58.95;;;8.70;1.00;;;;;;5111910;28;20031;-72
2021/12/07 14:46:59;;;;;;;90.15;55.58;;;8.50;1.00;;;;;;5111095;28;20057;-71
2021/12/07 14:49:27;;;;;;;44.42;25.50;;;8.50;1.00;;;;;;5113920;28;20042;-71
2021/12/07 14:51:53;;;;;;;16.85;4.43;;;8.50;1.00;;;;;;5114281;28;20127;-71